Flight Track Log - Related Links

Times and Time Zones

All times are in EDT time to prevent confusion due to time zone crossing. See the HAL107 flight status page for this flight to view local times or setup timezone preferences in your user account.

Time Position Orientation Groundspeed Altitude Reporting Facility
EDT Latitude Longitude Course Direction KTS MPH feet Rate Location/Type
Wed 12:14:55 PM 19.7833 -156.0333 303° West 170 196 2,800  Level Honolulu Center
Wed 12:15:56 PM 19.8333 -156.0333 360° North 210 242 4,500 1,250 Climbing Honolulu Center
Wed 12:16:00 PM 19.8319 -156.2319 317° Northwest  Level FlightAware Approximate
Wed 12:16:55 PM 19.8667 -156.0833 305° West 260 299 5,300  Level Honolulu Center
Wed 12:17:00 PM 19.8794 -156.2833 North  Level FlightAware Approximate
Wed 12:17:55 PM 19.9167 -156.1500 309° West 270 311 7,700  Level Honolulu Center
Wed 12:18:00 PM 19.9188 -156.3454 301° West  Level FlightAware Approximate
Wed 12:18:56 PM 19.9667 -156.2167 309° West 290 334 9,800  Level Honolulu Center
Wed 12:19:00 PM 19.9500 -156.4130 270° West  Level FlightAware Approximate
Wed 12:19:56 PM 20.0167 -156.3000 303° West 320 368 11,300  Level Honolulu Center
Wed 12:20:00 PM 20.0001 -156.4669 303° West  Level FlightAware Approximate
Wed 12:20:56 PM 20.0833 -156.3667 317° Northwest 350 403 12,900  Level Honolulu Center
Wed 12:21:56 PM 20.1500 -156.4500 310° West 360 414 14,800 2,100 Climbing Honolulu Center
Wed 12:22:56 PM 20.2000 -156.5500 298° West 360 414 17,100 2,250 Climbing Honolulu Center
Wed 12:23:56 PM 20.2667 -156.6333 310° West 360 414 19,300 1,450 Climbing Honolulu Center
Wed 12:24:56 PM 20.3333 -156.7167 310° West 360 414 20,000 347 Climbing Honolulu Center
Wed 12:25:57 PM 20.3833 -156.8000 303° West 360 414 20,000  Level Honolulu Center
Wed 12:26:57 PM 20.4500 -156.8833 310° West 360 414 20,000  Level Honolulu Center
Wed 12:27:57 PM 20.5167 -156.9667 311° West 360 414 20,000  Level Honolulu Center
Wed 12:28:57 PM 20.5833 -157.0500 311° West 360 414 20,000  Level Honolulu Center
Wed 12:29:57 PM 20.6333 -157.1167 309° West 360 414 20,000 -50 Level Honolulu Center
Wed 12:30:57 PM 20.7000 -157.2167 305° West 360 414 19,900 -850 Descending Honolulu Center
Wed 12:31:57 PM 20.7500 -157.2833 309° West 320 368 18,300 -1,736 Descending Honolulu Center
Wed 12:32:58 PM 20.8000 -157.3667 303° West 310 357 16,400 -2,083 Descending Honolulu Center
Wed 12:33:58 PM 20.8500 -157.4500 303° West 300 345 14,100 -2,168 Descending Honolulu Center
Wed 12:34:57 PM 20.8833 -157.5333 293° West 290 334 12,100 -1,966 Descending Honolulu Center
Wed 12:35:57 PM 20.9167 -157.6000 298° West 280 322 10,200 -1,686 Descending Honolulu Center
Wed 12:36:58 PM 20.9500 -157.6833 293° West 270 311 8,700 -893 Descending Honolulu Center
Wed 12:37:58 PM 20.9833 -157.7500 298° West 220 253 8,400 -850 Descending Honolulu Center
Wed 12:38:58 PM 21.0000 -157.8000 290° West 200 230 7,000 -1,400 Descending Honolulu Center
Wed 12:39:58 PM 21.0333 -157.8500 306° West 200 230 5,600 -1,150 Descending Honolulu Center
Wed 12:40:58 PM 21.0500 -157.9000 290° West 200 230 4,700 -900 Descending Honolulu Center

Login

Don't have an account? Register now (free) for customized features, flight alerts, and more!